Time;durP1;ratioP1;P1;durP2;ratioP2;P2;SDS_P1;SDS_P2;PMS_P1;PMS_P2;Temp;Humidity;BMP_temperature;BMP_pressure;BME280_temperature;BME280_humidity;BME280_pressure;Samples;Min_cycle;Max_cycle;Signal;HPM_P1;HPM_P2
2021/06/08 00:01:01;;;;;;;11.43;10.33;;;;;;;;;;5054757;28;20226;-80
2021/06/08 00:03:28;;;;;;;10.33;9.43;;;;;;;;;;5055164;28;20210;-80
2021/06/08 00:05:54;;;;;;;11.87;10.23;;;;;;;;;;5053589;28;20235;-80
2021/06/08 00:08:20;;;;;;;14.43;10.37;;;;;;;;;;5052858;28;20199;-80
2021/06/08 00:10:46;;;;;;;12.53;11.23;;;;;;;;;;5053622;28;20187;-80
2021/06/08 00:13:14;;;;;;;11.90;10.70;;;;;;;;;;5053117;28;20261;-80
2021/06/08 00:15:40;;;;;;;11.43;10.37;;;;;;;;;;5053429;28;20218;-81
2021/06/08 00:18:06;;;;;;;12.10;11.00;;;;;;;;;;5054534;28;20243;-80
2021/06/08 00:20:32;;;;;;;11.60;10.50;;;;;;;;;;5053622;28;20183;-80
2021/06/08 00:22:58;;;;;;;12.00;10.80;;;;;;;;;;5054855;28;20242;-80
2021/06/08 00:25:24;;;;;;;12.53;11.33;;;;;;;;;;5054464;28;20223;-80
2021/06/08 00:27:51;;;;;;;12.70;11.40;;;;;;;;;;5052683;28;20209;-80
2021/06/08 00:30:19;;;;;;;12.70;11.37;;;;;;;;;;5052957;28;20226;-80
2021/06/08 00:32:45;;;;;;;12.90;11.67;;;;;;;;;;5054543;28;20183;-81
2021/06/08 00:35:12;;;;;;;13.67;11.07;;;;;;;;;;5053090;28;20640;-80
2021/06/08 00:37:39;;;;;;;12.47;11.27;;;;;;;;;;5053113;28;20716;-80
2021/06/08 00:40:06;;;;;;;12.73;11.57;;;;;;;;;;5054346;28;20176;-80
2021/06/08 00:42:33;;;;;;;15.07;11.63;;;;;;;;;;5054188;28;20179;-80
2021/06/08 00:45:01;;;;;;;13.23;11.80;;;;;;;;;;5052860;28;20269;-80
2021/06/08 00:47:29;;;;;;;12.07;10.97;;;;;;;;;;5054205;28;20214;-80
2021/06/08 00:49:55;;;;;;;11.20;10.37;;;;;;;;;;5052452;28;20208;-80
2021/06/08 00:52:21;;;;;;;13.73;12.33;;;;;;;;;;5053937;28;20211;-79
2021/06/08 00:54:47;;;;;;;13.20;11.97;;;;;;;;;;5053580;28;20203;-80
2021/06/08 00:57:14;;;;;;;13.03;11.93;;;;;;;;;;5052781;28;20200;-80
2021/06/08 00:59:40;;;;;;;13.67;12.30;;;;;;;;;;5052658;28;20214;-80
2021/06/08 01:02:06;;;;;;;14.10;12.53;;;;;;;;;;5052697;28;20223;-80
2021/06/08 01:04:34;;;;;;;13.13;11.83;;;;;;;;;;5053905;28;20250;-81
2021/06/08 01:07:00;;;;;;;14.23;12.83;;;;;;;;;;5053715;28;20215;-80
2021/06/08 01:09:26;;;;;;;14.53;12.90;;;;;;;;;;5051999;28;20207;-81
2021/06/08 01:11:52;;;;;;;13.57;12.27;;;;;;;;;;5052384;28;20563;-80
2021/06/08 01:14:18;;;;;;;14.33;12.90;;;;;;;;;;5053582;28;20215;-81
2021/06/08 01:16:44;;;;;;;14.73;12.57;;;;;;;;;;5053897;28;20239;-81
2021/06/08 01:19:10;;;;;;;13.63;12.33;;;;;;;;;;5053236;28;20245;-81
2021/06/08 01:21:38;;;;;;;14.37;13.07;;;;;;;;;;5054270;28;20211;-81
2021/06/08 01:24:05;;;;;;;14.23;12.87;;;;;;;;;;5052114;28;20203;-80
2021/06/08 01:26:31;;;;;;;16.17;13.63;;;;;;;;;;5051581;28;20703;-81
2021/06/08 01:28:58;;;;;;;15.83;14.33;;;;;;;;;;5052349;28;20199;-80
2021/06/08 01:31:25;;;;;;;14.80;13.03;;;;;;;;;;5053130;28;20630;-81
2021/06/08 01:33:52;;;;;;;17.47;13.27;;;;;;;;;;5053330;28;20226;-81
2021/06/08 01:36:19;;;;;;;16.23;13.80;;;;;;;;;;5052147;28;20183;-81
2021/06/08 01:38:49;;;;;;;15.20;13.70;;;;;;;;;;5053380;28;20218;-82
2021/06/08 01:41:17;;;;;;;16.10;13.70;;;;;;;;;;5051955;28;20257;-82
2021/06/08 01:43:44;;;;;;;15.07;13.63;;;;;;;;;;5053085;28;20215;-83
2021/06/08 01:46:10;;;;;;;15.60;14.17;;;;;;;;;;5052498;28;20235;-82
2021/06/08 01:48:37;;;;;;;15.30;13.27;;;;;;;;;;5051780;28;20199;-82
2021/06/08 01:51:07;;;;;;;14.77;13.37;;;;;;;;;;5053269;28;20204;-81
2021/06/08 01:53:36;;;;;;;15.07;13.67;;;;;;;;;;5053159;28;20203;-80
2021/06/08 01:56:05;;;;;;;15.17;13.23;;;;;;;;;;5051924;28;20285;-80
2021/06/08 01:58:36;;;;;;;14.20;12.83;;;;;;;;;;5052853;28;20246;-80
2021/06/08 02:01:12;;;;;;;14.03;12.63;;;;;;;;;;5052405;28;20692;-80
2021/06/08 02:03:39;;;;;;;16.63;13.63;;;;;;;;;;5051779;28;20244;-80
2021/06/08 02:06:09;;;;;;;14.33;12.83;;;;;;;;;;5052972;28;20227;-80
2021/06/08 02:08:39;;;;;;;16.03;14.13;;;;;;;;;;5053205;28;20235;-80
2021/06/08 02:11:08;;;;;;;15.10;13.60;;;;;;;;;;5052909;28;20210;-80
2021/06/08 02:13:40;;;;;;;15.50;14.00;;;;;;;;;;5051933;28;20678;-81
2021/06/08 02:16:10;;;;;;;16.17;14.43;;;;;;;;;;5052910;28;20633;-80
2021/06/08 02:18:36;;;;;;;15.83;14.33;;;;;;;;;;5051600;28;20206;-80
2021/06/08 02:21:03;;;;;;;15.80;14.23;;;;;;;;;;5051837;28;20207;-80
2021/06/08 02:23:31;;;;;;;16.90;15.20;;;;;;;;;;5053212;28;20303;-81
2021/06/08 02:25:57;;;;;;;15.90;14.50;;;;;;;;;;5052644;28;20617;-80
2021/06/08 02:28:27;;;;;;;16.40;14.43;;;;;;;;;;5052885;28;20190;-80
2021/06/08 02:30:54;;;;;;;15.87;14.30;;;;;;;;;;5053228;28;20512;-81
2021/06/08 02:33:21;;;;;;;18.07;14.63;;;;;;;;;;5052313;28;20218;-80
2021/06/08 02:35:48;;;;;;;15.87;14.37;;;;;;;;;;5052890;28;20246;-80
2021/06/08 02:38:14;;;;;;;16.93;15.23;;;;;;;;;;5051303;28;20858;-80
2021/06/08 02:40:41;;;;;;;16.77;15.17;;;;;;;;;;5052742;28;20646;-80
2021/06/08 02:43:08;;;;;;;16.60;14.90;;;;;;;;;;5051234;28;20914;-81
2021/06/08 02:45:35;;;;;;;16.87;15.27;;;;;;;;;;5054506;28;20242;-79
2021/06/08 02:48:02;;;;;;;17.23;15.43;;;;;;;;;;5055316;28;20249;-80
2021/06/08 02:50:29;;;;;;;17.73;15.93;;;;;;;;;;5056270;28;20238;-80
2021/06/08 02:52:55;;;;;;;16.97;15.27;;;;;;;;;;5054727;28;20253;-81
2021/06/08 02:55:22;;;;;;;18.30;15.70;;;;;;;;;;5056521;28;20203;-81
2021/06/08 02:57:50;;;;;;;17.10;15.10;;;;;;;;;;5056142;28;20207;-80
2021/06/08 03:00:17;;;;;;;18.20;15.23;;;;;;;;;;5054881;28;20594;-81
2021/06/08 03:02:45;;;;;;;17.57;15.77;;;;;;;;;;5054993;28;20329;-81
2021/06/08 03:05:13;;;;;;;17.00;15.33;;;;;;;;;;5056143;28;20254;-80
2021/06/08 03:07:40;;;;;;;17.80;15.90;;;;;;;;;;5055759;28;20215;-80
2021/06/08 03:10:07;;;;;;;17.33;15.53;;;;;;;;;;5054372;28;20207;-81
2021/06/08 03:12:36;;;;;;;16.77;15.13;;;;;;;;;;5054359;28;20230;-80
2021/06/08 03:15:04;;;;;;;17.07;15.47;;;;;;;;;;5056036;28;20212;-80
2021/06/08 03:17:31;;;;;;;18.10;16.20;;;;;;;;;;5056053;28;20215;-80
2021/06/08 03:20:04;;;;;;;17.13;15.50;;;;;;;;;;5055942;28;20184;-81
2021/06/08 03:22:30;;;;;;;16.17;14.67;;;;;;;;;;5054440;28;20203;-80
2021/06/08 03:24:58;;;;;;;16.27;14.57;;;;;;;;;;5055781;28;20598;-81
2021/06/08 03:27:24;;;;;;;17.37;15.57;;;;;;;;;;5053941;28;20258;-81
2021/06/08 03:29:50;;;;;;;16.37;14.83;;;;;;;;;;5054222;28;20265;-80
2021/06/08 03:32:18;;;;;;;16.63;14.77;;;;;;;;;;5054260;28;20192;-80
2021/06/08 03:34:44;;;;;;;17.07;15.27;;;;;;;;;;5055497;28;20632;-81
2021/06/08 03:37:12;;;;;;;18.60;16.20;;;;;;;;;;5054074;28;20225;-82
2021/06/08 03:39:39;;;;;;;18.17;15.17;;;;;;;;;;5055658;28;20207;-82
2021/06/08 03:42:06;;;;;;;16.03;14.43;;;;;;;;;;5055502;28;20239;-82
2021/06/08 03:44:34;;;;;;;16.27;14.57;;;;;;;;;;5055477;28;20176;-79
2021/06/08 03:47:00;;;;;;;16.33;14.50;;;;;;;;;;5053467;28;20769;-80
2021/06/08 03:49:27;;;;;;;16.57;14.97;;;;;;;;;;5053610;28;20555;-81
2021/06/08 03:51:54;;;;;;;20.10;15.73;;;;;;;;;;5053452;28;20207;-81
2021/06/08 03:54:21;;;;;;;17.40;15.53;;;;;;;;;;5055500;28;20215;-81
2021/06/08 03:56:49;;;;;;;18.80;15.77;;;;;;;;;;5053488;28;20652;-81
2021/06/08 03:59:16;;;;;;;16.90;15.20;;;;;;;;;;5053797;28;20234;-81
2021/06/08 04:01:42;;;;;;;16.70;15.10;;;;;;;;;;5054343;28;20649;-81
2021/06/08 04:04:09;;;;;;;17.17;15.47;;;;;;;;;;5054970;28;20238;-80
2021/06/08 04:06:36;;;;;;;15.73;14.23;;;;;;;;;;5053522;28;20762;-80
2021/06/08 04:09:03;;;;;;;16.23;14.63;;;;;;;;;;5054950;28;20551;-81
2021/06/08 04:11:30;;;;;;;17.23;15.37;;;;;;;;;;5055069;28;20241;-81
2021/06/08 04:13:57;;;;;;;18.67;14.70;;;;;;;;;;5053350;28;20208;-80
2021/06/08 04:16:23;;;;;;;16.20;14.60;;;;;;;;;;5054812;28;20211;-80
2021/06/08 04:18:50;;;;;;;16.07;14.53;;;;;;;;;;5053514;28;20196;-80
2021/06/08 04:21:16;;;;;;;17.13;14.37;;;;;;;;;;5054898;28;20238;-80
2021/06/08 04:23:42;;;;;;;14.73;13.30;;;;;;;;;;5053374;28;20196;-79
2021/06/08 04:26:08;;;;;;;15.40;13.83;;;;;;;;;;5054739;28;20761;-79
2021/06/08 04:28:36;;;;;;;15.00;13.57;;;;;;;;;;5053072;28;20203;-80
2021/06/08 04:31:02;;;;;;;15.23;13.73;;;;;;;;;;5053029;28;20566;-81
2021/06/08 04:33:29;;;;;;;15.27;13.67;;;;;;;;;;5053068;28;20902;-80
2021/06/08 04:35:56;;;;;;;15.50;13.90;;;;;;;;;;5053091;28;20211;-80
2021/06/08 04:38:22;;;;;;;15.17;13.70;;;;;;;;;;5052861;28;20660;-80
2021/06/08 04:40:49;;;;;;;14.20;12.80;;;;;;;;;;5054517;28;20187;-79
2021/06/08 04:43:20;;;;;;;14.83;13.33;;;;;;;;;;5052556;28;20551;-80
2021/06/08 04:45:47;;;;;;;14.10;12.70;;;;;;;;;;5052792;28;20625;-80
2021/06/08 04:48:13;;;;;;;14.03;12.63;;;;;;;;;;5054234;28;20226;-80
2021/06/08 04:50:39;;;;;;;14.50;13.10;;;;;;;;;;5054757;28;20215;-79
2021/06/08 04:53:06;;;;;;;14.40;13.10;;;;;;;;;;5054163;28;20687;-80
2021/06/08 04:55:32;;;;;;;15.03;13.60;;;;;;;;;;5052886;28;20204;-80
2021/06/08 04:57:58;;;;;;;13.70;12.30;;;;;;;;;;5053909;28;20216;-80
2021/06/08 05:00:26;;;;;;;14.57;12.50;;;;;;;;;;5053887;28;20672;-78
2021/06/08 05:02:55;;;;;;;14.10;12.70;;;;;;;;;;5052608;28;20259;-78
2021/06/08 05:05:22;;;;;;;13.00;11.67;;;;;;;;;;5051938;28;20272;-80
2021/06/08 05:07:52;;;;;;;13.47;11.67;;;;;;;;;;5067954;28;20244;-81
2021/06/08 05:10:19;;;;;;;13.77;12.47;;;;;;;;;;5072369;28;20540;-81
2021/06/08 05:12:46;;;;;;;14.73;12.83;;;;;;;;;;5072491;28;20730;-81
2021/06/08 05:15:15;;;;;;;13.40;12.20;;;;;;;;;;5073632;28;20214;-81
2021/06/08 05:17:42;;;;;;;13.67;12.23;;;;;;;;;;5073750;28;20202;-80
2021/06/08 05:20:10;;;;;;;15.63;12.17;;;;;;;;;;5073542;28;20209;-78
2021/06/08 05:22:37;;;;;;;14.10;12.33;;;;;;;;;;5071589;28;20902;-79
2021/06/08 05:25:03;;;;;;;13.07;11.73;;;;;;;;;;5073470;28;20255;-79
2021/06/08 05:27:29;;;;;;;15.50;12.13;;;;;;;;;;5071913;28;20576;-81
2021/06/08 05:29:57;;;;;;;14.10;12.70;;;;;;;;;;5073491;28;20743;-79
2021/06/08 05:32:23;;;;;;;13.57;11.63;;;;;;;;;;5071937;28;20203;-79
2021/06/08 05:34:49;;;;;;;12.47;11.20;;;;;;;;;;5071459;28;20202;-80
2021/06/08 05:37:17;;;;;;;13.00;11.70;;;;;;;;;;5071540;28;20244;-81
2021/06/08 05:39:44;;;;;;;13.80;12.47;;;;;;;;;;5073241;28;20232;-79
2021/06/08 05:42:14;;;;;;;14.50;12.37;;;;;;;;;;5071691;28;20667;-80
2021/06/08 05:44:40;;;;;;;13.00;11.13;;;;;;;;;;5071685;28;20207;-79
2021/06/08 05:47:07;;;;;;;15.07;11.30;;;;;;;;;;5071815;28;20283;-80
2021/06/08 05:49:34;;;;;;;12.50;11.30;;;;;;;;;;5071682;28;20244;-79
2021/06/08 05:52:01;;;;;;;12.70;11.40;;;;;;;;;;5073242;28;20570;-80
2021/06/08 05:54:29;;;;;;;12.67;11.23;;;;;;;;;;5071950;28;20213;-80
2021/06/08 05:56:56;;;;;;;12.80;11.50;;;;;;;;;;5071317;28;20222;-80
2021/06/08 05:59:22;;;;;;;12.20;11.10;;;;;;;;;;5071132;28;20232;-80
2021/06/08 06:01:49;;;;;;;12.27;11.10;;;;;;;;;;5072629;28;20710;-80
2021/06/08 06:04:16;;;;;;;12.80;11.43;;;;;;;;;;5072844;28;20238;-80
2021/06/08 06:06:43;;;;;;;12.00;10.90;;;;;;;;;;5072939;28;20226;-79
2021/06/08 06:09:09;;;;;;;12.30;10.93;;;;;;;;;;5071549;28;20670;-80
2021/06/08 06:11:37;;;;;;;13.70;11.73;;;;;;;;;;5071579;28;20203;-79
2021/06/08 06:14:05;;;;;;;15.83;11.53;;;;;;;;;;5070995;28;20909;-79
2021/06/08 06:16:34;;;;;;;14.80;11.13;;;;;;;;;;5071859;28;20195;-78
2021/06/08 06:19:01;;;;;;;12.80;11.00;;;;;;;;;;5073951;28;20241;-78
2021/06/08 06:21:28;;;;;;;12.27;10.97;;;;;;;;;;5075683;28;20612;-79
2021/06/08 06:23:54;;;;;;;13.50;10.67;;;;;;;;;;5075552;28;20198;-79
2021/06/08 06:26:21;;;;;;;11.93;10.73;;;;;;;;;;5076023;28;20261;-79
2021/06/08 06:28:48;;;;;;;11.77;10.67;;;;;;;;;;5077266;28;20210;-78
2021/06/08 06:31:14;;;;;;;13.30;10.90;;;;;;;;;;5075336;28;20215;-79
2021/06/08 06:33:43;;;;;;;13.27;11.27;;;;;;;;;;5076410;28;20202;-80
2021/06/08 06:36:11;;;;;;;12.50;11.20;;;;;;;;;;5075319;28;20756;-79
2021/06/08 06:38:37;;;;;;;12.50;11.20;;;;;;;;;;5075011;28;20198;-80
2021/06/08 06:41:05;;;;;;;11.60;10.50;;;;;;;;;;5076418;28;20214;-79
2021/06/08 06:43:32;;;;;;;12.40;11.10;;;;;;;;;;5076336;28;20704;-79
2021/06/08 06:46:00;;;;;;;12.57;10.30;;;;;;;;;;5074744;28;20250;-80
2021/06/08 06:48:26;;;;;;;13.43;10.90;;;;;;;;;;5074927;28;20202;-79
2021/06/08 06:50:53;;;;;;;12.43;11.10;;;;;;;;;;5074944;28;20204;-80
2021/06/08 06:53:19;;;;;;;13.10;11.77;;;;;;;;;;5074910;28;20662;-80
2021/06/08 06:55:47;;;;;;;12.13;10.87;;;;;;;;;;5074836;28;20198;-79
2021/06/08 06:58:13;;;;;;;12.47;11.00;;;;;;;;;;5074807;28;20674;-79
2021/06/08 07:00:41;;;;;;;13.30;11.27;;;;;;;;;;5076130;28;20210;-79
2021/06/08 07:03:09;;;;;;;12.60;11.27;;;;;;;;;;5076226;28;20701;-79
2021/06/08 07:05:35;;;;;;;12.47;11.37;;;;;;;;;;5074202;28;20198;-79
2021/06/08 07:08:04;;;;;;;12.27;11.07;;;;;;;;;;5074739;28;20206;-79
2021/06/08 07:10:31;;;;;;;12.03;10.87;;;;;;;;;;5076249;28;20207;-79
2021/06/08 07:13:03;;;;;;;15.13;11.50;;;;;;;;;;5074580;28;20240;-78
2021/06/08 07:15:30;;;;;;;11.77;10.40;;;;;;;;;;5074478;28;20240;-79
2021/06/08 07:17:56;;;;;;;13.83;10.40;;;;;;;;;;5074586;28;20659;-79
2021/06/08 07:20:25;;;;;;;12.93;11.73;;;;;;;;;;5074112;28;20207;-79
2021/06/08 07:22:52;;;;;;;11.23;10.13;;;;;;;;;;5075953;28;20201;-79
2021/06/08 07:25:20;;;;;;;14.17;10.70;;;;;;;;;;5074503;28;20221;-79
2021/06/08 07:27:46;;;;;;;12.57;10.70;;;;;;;;;;5073991;28;20246;-79
2021/06/08 07:30:14;;;;;;;12.40;11.00;;;;;;;;;;5073438;28;20228;-80
2021/06/08 07:32:42;;;;;;;11.77;10.67;;;;;;;;;;5074434;28;20605;-79
2021/06/08 07:35:12;;;;;;;11.63;10.43;;;;;;;;;;5074316;28;20606;-79
2021/06/08 07:37:49;;;;;;;11.57;10.47;;;;;;;;;;5075513;28;20675;-79
2021/06/08 07:40:18;;;;;;;12.17;10.87;;;;;;;;;;5074060;28;20662;-79
2021/06/08 07:42:48;;;;;;;12.37;11.20;;;;;;;;;;5075425;28;20183;-79
2021/06/08 07:45:18;;;;;;;14.77;10.77;;;;;;;;;;5075910;28;20553;-80
2021/06/08 07:47:47;;;;;;;14.97;10.60;;;;;;;;;;5073797;28;20264;-80
2021/06/08 07:50:13;;;;;;;11.70;10.60;;;;;;;;;;5073866;28;20195;-80
2021/06/08 07:52:41;;;;;;;15.23;11.00;;;;;;;;;;5074049;28;20256;-79
2021/06/08 07:55:08;;;;;;;15.50;11.33;;;;;;;;;;5075287;28;20272;-80
2021/06/08 07:57:34;;;;;;;11.85;10.70;;;;;;;;;;5058765;28;20675;-80
2021/06/08 08:00:00;;;;;;;11.60;10.60;;;;;;;;;;5053912;28;20596;-79
2021/06/08 08:02:27;;;;;;;11.75;10.55;;;;;;;;;;5054374;28;20239;-79
2021/06/08 08:04:57;;;;;;;13.00;11.57;;;;;;;;;;5053844;28;20188;-79
2021/06/08 08:07:24;;;;;;;12.90;11.65;;;;;;;;;;5053553;28;20748;-79
2021/06/08 08:09:52;;;;;;;12.45;11.35;;;;;;;;;;5055095;28;20215;-80
2021/06/08 08:12:19;;;;;;;14.32;13.02;;;;;;;;;;5054958;28;20205;-80
2021/06/08 08:14:46;;;;;;;16.33;13.13;;;;;;;;;;5054790;28;20576;-80
2021/06/08 08:17:13;;;;;;;13.57;12.27;;;;;;;;;;5053305;28;20608;-79
2021/06/08 08:19:39;;;;;;;12.77;11.67;;;;;;;;;;5053465;28;20206;-82
2021/06/08 08:22:06;;;;;;;13.27;11.80;;;;;;;;;;5053030;28;20203;-80
2021/06/08 08:24:33;;;;;;;13.32;12.07;;;;;;;;;;5054296;28;20207;-80
2021/06/08 08:27:01;;;;;;;12.25;11.05;;;;;;;;;;5054360;28;20253;-79
2021/06/08 08:29:27;;;;;;;12.15;11.02;;;;;;;;;;5054863;28;20191;-80
2021/06/08 08:31:53;;;;;;;14.27;11.95;;;;;;;;;;5054432;28;20226;-80
2021/06/08 08:34:20;;;;;;;13.95;11.35;;;;;;;;;;5054524;28;20210;-80
2021/06/08 08:36:46;;;;;;;11.65;10.45;;;;;;;;;;5053324;28;20635;-80
2021/06/08 08:39:12;;;;;;;14.57;11.35;;;;;;;;;;5053553;28;20591;-80
2021/06/08 08:41:39;;;;;;;15.88;10.38;;;;;;;;;;5053147;28;20180;-80
2021/06/08 08:44:07;;;;;;;11.02;10.02;;;;;;;;;;5052771;28;20203;-80
2021/06/08 08:46:34;;;;;;;12.07;10.52;;;;;;;;;;5054306;28;21057;-81
2021/06/08 08:49:00;;;;;;;14.60;11.85;;;;;;;;;;5054460;28;20215;-79
2021/06/08 08:51:27;;;;;;;13.10;11.63;;;;;;;;;;5052783;28;20548;-80
2021/06/08 08:53:54;;;;;;;12.82;11.55;;;;;;;;;;5052832;28;20203;-80
2021/06/08 08:56:22;;;;;;;12.02;10.93;;;;;;;;;;5052659;28;20199;-80
2021/06/08 08:58:48;;;;;;;13.57;10.57;;;;;;;;;;5052352;28;20221;-81
2021/06/08 09:01:16;;;;;;;12.15;10.93;;;;;;;;;;5053416;28;20751;-80
2021/06/08 09:03:42;;;;;;;12.75;11.50;;;;;;;;;;5052745;28;20199;-80
2021/06/08 09:06:11;;;;;;;12.40;11.20;;;;;;;;;;5052617;28;20208;-81
2021/06/08 09:08:38;;;;;;;13.63;12.40;;;;;;;;;;5053668;28;20249;-81
2021/06/08 09:11:05;;;;;;;13.07;11.88;;;;;;;;;;5053768;28;20207;-80
2021/06/08 09:13:32;;;;;;;13.07;10.48;;;;;;;;;;5053923;28;20207;-80
2021/06/08 09:15:58;;;;;;;11.65;10.48;;;;;;;;;;5052385;28;20199;-81
2021/06/08 09:18:26;;;;;;;14.45;10.80;;;;;;;;;;5052305;28;20207;-81
2021/06/08 09:20:52;;;;;;;13.15;11.82;;;;;;;;;;5052434;28;20207;-80
2021/06/08 09:23:21;;;;;;;14.20;11.88;;;;;;;;;;5053358;28;20216;-80
2021/06/08 09:25:48;;;;;;;12.80;11.25;;;;;;;;;;5053521;28;20242;-81
2021/06/08 09:28:19;;;;;;;11.15;10.07;;;;;;;;;;5052178;28;20238;-81
2021/06/08 09:30:46;;;;;;;14.48;12.95;;;;;;;;;;5052318;28;20207;-80
2021/06/08 09:33:18;;;;;;;13.23;11.90;;;;;;;;;;5053468;28;20176;-81
2021/06/08 09:35:49;;;;;;;14.25;12.73;;;;;;;;;;5053697;28;20195;-80
2021/06/08 09:38:16;;;;;;;14.68;12.13;;;;;;;;;;5052177;28;20226;-80
2021/06/08 09:40:42;;;;;;;12.75;11.48;;;;;;;;;;5053295;28;20206;-79
2021/06/08 09:43:09;;;;;;;14.48;13.07;;;;;;;;;;5053541;28;20222;-79
2021/06/08 09:45:39;;;;;;;13.45;12.27;;;;;;;;;;5052223;28;20210;-79
2021/06/08 09:48:06;;;;;;;15.95;14.35;;;;;;;;;;5051888;28;20223;-78
2021/06/08 09:50:33;;;;;;;12.73;11.63;;;;;;;;;;5053406;28;20211;-78
2021/06/08 09:53:14;;;;;;;14.88;12.95;;;;;;;;;;5052833;28;20208;-78
2021/06/08 09:55:48;;;;;;;15.30;13.52;;;;;;;;;;5048408;28;20199;-79
2021/06/08 09:58:15;;;;;;;14.57;13.20;;;;;;;;;;5052010;28;20560;-80
2021/06/08 10:00:41;;;;;;;15.40;12.52;;;;;;;;;;5051227;28;20203;-79
2021/06/08 10:03:07;;;;;;;13.43;12.25;;;;;;;;;;5053070;28;20222;-78
2021/06/08 10:05:33;;;;;;;13.13;12.02;;;;;;;;;;5052003;28;20208;-78
2021/06/08 10:08:07;;;;;;;14.90;13.40;;;;;;;;;;5053440;28;20246;-77
2021/06/08 10:10:37;;;;;;;14.63;13.23;;;;;;;;;;5052050;28;20568;-80
2021/06/08 10:13:05;;;;;;;15.25;13.88;;;;;;;;;;5052966;28;20238;-79
2021/06/08 10:15:32;;;;;;;14.20;12.88;;;;;;;;;;5051119;28;20214;-78
2021/06/08 10:18:00;;;;;;;13.63;12.07;;;;;;;;;;5057008;28;20194;-80
2021/06/08 10:20:26;;;;;;;13.20;12.00;;;;;;;;;;5072867;28;20211;-79
2021/06/08 10:22:53;;;;;;;15.02;11.43;;;;;;;;;;5070973;28;20198;-79
2021/06/08 10:25:19;;;;;;;12.80;11.57;;;;;;;;;;5071210;28;20199;-79
2021/06/08 10:27:45;;;;;;;18.42;12.98;;;;;;;;;;5073003;28;20234;-78
2021/06/08 10:30:13;;;;;;;13.35;12.15;;;;;;;;;;5071577;28;20193;-77
2021/06/08 10:32:40;;;;;;;16.25;14.27;;;;;;;;;;5070913;28;20218;-80
2021/06/08 10:35:06;;;;;;;16.85;13.68;;;;;;;;;;5072731;28;20244;-80
2021/06/08 10:37:33;;;;;;;15.18;13.60;;;;;;;;;;5072755;28;20202;-78
2021/06/08 10:40:00;;;;;;;15.95;12.70;;;;;;;;;;5071645;28;20207;-80
2021/06/08 10:42:27;;;;;;;13.77;12.50;;;;;;;;;;5072713;28;20249;-79
2021/06/08 10:44:59;;;;;;;14.05;12.70;;;;;;;;;;5054731;28;20198;-79
2021/06/08 10:47:35;;;;;;;14.80;10.90;;;;;;;;;;5072518;28;20254;-79
2021/06/08 10:50:02;;;;;;;11.73;10.52;;;;;;;;;;5071254;28;20198;-79
2021/06/08 10:52:43;;;;;;;10.48;9.68;;;;;;;;;;5072736;28;20206;-80
2021/06/08 10:55:10;;;;;;;10.73;9.68;;;;;;;;;;5072283;28;20578;-78
2021/06/08 10:57:42;;;;;;;10.90;9.80;;;;;;;;;;5072448;28;20242;-78
2021/06/08 11:00:29;;;;;;;12.57;10.98;;;;;;;;;;5070512;28;20207;-79
2021/06/08 11:03:00;;;;;;;11.63;10.48;;;;;;;;;;5071762;28;20234;-79
2021/06/08 11:05:41;;;;;;;10.90;9.80;;;;;;;;;;5073782;28;20234;-80
2021/06/08 11:08:07;;;;;;;11.02;10.02;;;;;;;;;;5075363;28;20219;-79
2021/06/08 11:10:57;;;;;;;10.68;9.88;;;;;;;;;;5076214;28;20207;-80
2021/06/08 11:13:42;;;;;;;11.98;10.77;;;;;;;;;;5076405;28;20222;-80
2021/06/08 11:16:28;;;;;;;11.45;10.45;;;;;;;;;;5074257;28;20732;-78
2021/06/08 11:18:55;;;;;;;13.00;10.95;;;;;;;;;;5074827;28;20244;-78
2021/06/08 11:21:22;;;;;;;11.98;10.35;;;;;;;;;;5074680;28;20214;-78
2021/06/08 11:23:49;;;;;;;10.93;9.93;;;;;;;;;;5075189;28;20191;-78
2021/06/08 11:26:15;;;;;;;10.30;9.20;;;;;;;;;;5074453;28;20616;-78
2021/06/08 11:28:42;;;;;;;9.10;8.30;;;;;;;;;;5075127;28;20287;-77
2021/06/08 11:31:09;;;;;;;9.52;8.63;;;;;;;;;;5073978;28;20905;-80
2021/06/08 11:33:36;;;;;;;9.73;8.88;;;;;;;;;;5091230;28;20198;-80
2021/06/08 11:36:24;;;;;;;9.20;8.32;;;;;;;;;;5075718;28;20210;-79
2021/06/08 11:38:51;;;;;;;8.80;8.00;;;;;;;;;;5073709;28;20202;-79
2021/06/08 11:41:18;;;;;;;9.63;8.10;;;;;;;;;;5074314;28;20244;-77
2021/06/08 11:43:54;;;;;;;8.45;7.75;;;;;;;;;;5075408;28;20247;-78
2021/06/08 11:46:28;;;;;;;9.82;8.70;;;;;;;;;;5075395;28;20232;-81
2021/06/08 11:49:05;;;;;;;10.38;9.48;;;;;;;;;;5090585;28;20311;-81
2021/06/08 11:51:39;;;;;;;9.20;8.35;;;;;;;;;;5073425;28;20202;-80
2021/06/08 11:54:08;;;;;;;9.95;9.02;;;;;;;;;;5074533;28;20699;-80
2021/06/08 11:56:42;;;;;;;9.55;8.65;;;;;;;;;;5074837;28;20246;-77
2021/06/08 11:59:08;;;;;;;12.00;8.45;;;;;;;;;;5074937;28;20215;-79
2021/06/08 12:01:35;;;;;;;8.77;7.93;;;;;;;;;;5073720;28;20889;-81
2021/06/08 12:04:01;;;;;;;10.30;8.10;;;;;;;;;;5073410;28;20202;-80
2021/06/08 12:06:42;;;;;;;9.20;8.38;;;;;;;;;;5073497;28;20202;-81
2021/06/08 12:09:11;;;;;;;10.38;9.45;;;;;;;;;;5074416;28;20209;-80
2021/06/08 12:11:37;;;;;;;9.07;8.27;;;;;;;;;;5074959;28;20206;-81
2021/06/08 12:14:06;;;;;;;8.80;8.10;;;;;;;;;;5073542;28;20233;-80
2021/06/08 12:16:33;;;;;;;9.60;8.70;;;;;;;;;;5073100;28;20249;-80
2021/06/08 12:19:06;;;;;;;9.10;8.23;;;;;;;;;;5073307;28;20199;-79
2021/06/08 12:21:32;;;;;;;8.77;7.93;;;;;;;;;;5075298;28;20194;-80
2021/06/08 12:23:59;;;;;;;9.10;7.80;;;;;;;;;;5074749;28;20233;-77
2021/06/08 12:26:27;;;;;;;8.75;8.05;;;;;;;;;;5089512;28;20630;-81
2021/06/08 12:29:02;;;;;;;9.25;8.35;;;;;;;;;;5073583;28;20816;-80
2021/06/08 12:31:28;;;;;;;9.20;8.40;;;;;;;;;;5073251;28;20658;-80
2021/06/08 12:33:55;;;;;;;10.30;9.27;;;;;;;;;;5073146;28;20600;-79
2021/06/08 12:36:22;;;;;;;10.10;9.25;;;;;;;;;;5074083;28;20682;-79
2021/06/08 12:38:48;;;;;;;14.63;8.57;;;;;;;;;;5073130;28;20203;-79
2021/06/08 12:41:15;;;;;;;10.90;9.85;;;;;;;;;;5073893;28;20282;-79
2021/06/08 12:43:43;;;;;;;11.30;10.20;;;;;;;;;;5072762;28;20248;-80
2021/06/08 12:46:10;;;;;;;10.73;9.80;;;;;;;;;;5074426;28;20203;-77
2021/06/08 12:48:36;;;;;;;11.60;10.50;;;;;;;;;;5074035;28;20265;-81
2021/06/08 12:51:11;;;;;;;10.32;9.40;;;;;;;;;;5074041;28;20207;-78
2021/06/08 12:53:38;;;;;;;10.20;9.23;;;;;;;;;;5074083;28;20214;-80
2021/06/08 12:56:04;;;;;;;11.85;8.63;;;;;;;;;;5073967;28;20237;-77
2021/06/08 12:58:31;;;;;;;10.75;9.68;;;;;;;;;;5073656;28;20230;-78
2021/06/08 13:00:58;;;;;;;10.18;8.80;;;;;;;;;;5072512;28;20187;-79
2021/06/08 13:03:25;;;;;;;12.30;10.43;;;;;;;;;;5089496;28;20255;-79
2021/06/08 13:05:51;;;;;;;11.05;9.25;;;;;;;;;;5072986;28;20229;-77
2021/06/08 13:08:17;;;;;;;10.57;9.55;;;;;;;;;;5072188;28;20238;-77
2021/06/08 13:10:44;;;;;;;10.80;9.70;;;;;;;;;;5072476;28;20202;-77
2021/06/08 13:13:12;;;;;;;11.50;10.45;;;;;;;;;;5072562;28;20666;-80
2021/06/08 13:15:39;;;;;;;12.60;9.82;;;;;;;;;;5072591;28;20202;-79
2021/06/08 13:18:10;;;;;;;10.63;9.52;;;;;;;;;;5073254;28;20234;-78
2021/06/08 13:20:40;;;;;;;11.90;9.75;;;;;;;;;;5073648;28;20233;-80
2021/06/08 13:23:07;;;;;;;11.15;10.10;;;;;;;;;;5073744;28;20242;-78
2021/06/08 13:25:34;;;;;;;9.48;8.68;;;;;;;;;;5072149;28;20194;-79
2021/06/08 13:28:00;;;;;;;11.35;10.32;;;;;;;;;;5072719;28;20258;-80
2021/06/08 13:30:27;;;;;;;10.60;9.50;;;;;;;;;;5072020;28;20260;-79
2021/06/08 13:32:59;;;;;;;12.55;10.60;;;;;;;;;;5073371;28;20244;-80
2021/06/08 13:35:33;;;;;;;12.65;10.48;;;;;;;;;;5071885;28;20214;-80
2021/06/08 13:38:00;;;;;;;9.95;8.95;;;;;;;;;;5072216;28;20209;-79
2021/06/08 13:40:27;;;;;;;13.52;9.48;;;;;;;;;;5073634;28;20214;-81
2021/06/08 13:42:57;;;;;;;11.05;9.90;;;;;;;;;;5073587;28;20250;-79
2021/06/08 13:45:27;;;;;;;11.00;9.90;;;;;;;;;;5071811;28;20202;-81
2021/06/08 13:47:53;;;;;;;10.20;9.40;;;;;;;;;;5071486;28;20246;-80
2021/06/08 13:50:21;;;;;;;11.93;10.82;;;;;;;;;;5071710;28;20202;-80
2021/06/08 13:53:04;;;;;;;9.85;8.93;;;;;;;;;;5072207;28;20206;-79
2021/06/08 13:55:31;;;;;;;11.48;8.98;;;;;;;;;;5072197;28;20202;-82
2021/06/08 14:01:02;;;;;;;10.23;9.20;;;;;;;;;;5070448;28;20243;-81
2021/06/08 14:03:28;;;;;;;12.23;9.43;;;;;;;;;;5071467;28;20198;-78
2021/06/08 14:06:05;;;;;;;12.43;10.45;;;;;;;;;;5073138;28;20203;-81
2021/06/08 14:08:33;;;;;;;11.35;10.23;;;;;;;;;;5071769;28;20210;-80
2021/06/08 14:10:59;;;;;;;9.60;8.70;;;;;;;;;;5073226;28;20681;-79
2021/06/08 14:13:26;;;;;;;9.65;8.70;;;;;;;;;;5072650;28;20242;-78
2021/06/08 14:15:52;;;;;;;10.93;10.02;;;;;;;;;;5071761;28;20230;-79
2021/06/08 14:18:19;;;;;;;14.32;8.88;;;;;;;;;;5072755;28;20578;-79
2021/06/08 14:20:45;;;;;;;9.90;9.00;;;;;;;;;;5071043;28;20210;-79
2021/06/08 14:23:11;;;;;;;9.50;8.55;;;;;;;;;;5072793;28;20207;-79
2021/06/08 14:25:39;;;;;;;10.73;8.80;;;;;;;;;;5071541;28;20205;-79
2021/06/08 14:28:05;;;;;;;9.45;8.65;;;;;;;;;;5071174;28;20246;-79